Time;durP1;ratioP1;P1;durP2;ratioP2;P2;SDS_P1;SDS_P2;PMS_P1;PMS_P2;Temp;Humidity;BMP_temperature;BMP_pressure;BME280_temperature;BME280_humidity;BME280_pressure;Samples;Min_cycle;Max_cycle;Signal;HPM_P1;HPM_P2
2020/12/24 00:00:17;;;;;;;121.80;53.88;;;;;;;6.01;76.36;100270.25;6192708;23;20012;-66
2020/12/24 00:02:43;;;;;;;171.57;71.28;;;;;;;5.86;78.72;100263.53;6193401;23;20194;-64
2020/12/24 00:05:08;;;;;;;177.25;68.43;;;;;;;5.97;79.32;100289.88;6193797;23;20069;-65
2020/12/24 00:07:34;;;;;;;168.52;66.75;;;;;;;5.96;79.76;100285.56;6193852;23;20004;-65
2020/12/24 00:09:59;;;;;;;136.80;55.93;;;;;;;6.12;79.05;100284.38;6193219;23;20056;-66
2020/12/24 00:12:24;;;;;;;131.65;54.72;;;;;;;6.01;79.76;100285.19;6194939;23;20023;-66
2020/12/24 00:14:50;;;;;;;141.00;57.05;;;;;;;6.11;78.63;100286.16;6193543;23;20028;-66
2020/12/24 00:17:15;;;;;;;139.13;56.15;;;;;;;5.97;79.13;100284.59;6193008;23;20067;-66
2020/12/24 00:19:41;;;;;;;143.60;56.30;;;;;;;5.69;79.76;100291.13;6192422;23;20005;-65
2020/12/24 00:22:06;;;;;;;144.67;55.93;;;;;;;5.45;80.92;100285.94;6194137;23;20001;-66
2020/12/24 00:24:31;;;;;;;138.75;55.00;;;;;;;5.34;80.29;100272.78;6193219;23;20338;-66
2020/12/24 00:26:57;;;;;;;131.67;53.07;;;;;;;5.66;79.42;100294.00;6193213;23;20028;-66
2020/12/24 00:29:22;;;;;;;139.63;59.27;;;;;;;5.56;78.96;100290.38;6191336;23;20001;-64
2020/12/24 00:31:48;;;;;;;144.33;59.07;;;;;;;5.58;79.35;100298.16;6193242;23;20067;-66
2020/12/24 00:34:14;;;;;;;149.25;57.22;;;;;;;5.55;79.59;100290.50;6193431;23;20001;-64
2020/12/24 00:36:39;;;;;;;141.37;56.77;;;;;;;5.46;80.38;100299.91;6191348;23;20185;-68
2020/12/24 00:39:04;;;;;;;144.53;55.30;;;;;;;5.34;79.77;100304.31;6191789;23;20037;-67
2020/12/24 00:41:30;;;;;;;139.07;55.40;;;;;;;5.12;81.15;100314.69;6194482;23;20016;-67
2020/12/24 00:43:56;;;;;;;134.07;54.07;;;;;;;5.13;81.57;100306.72;6193599;23;20001;-69
2020/12/24 00:46:21;;;;;;;130.77;51.27;;;;;;;5.07;80.46;100308.97;6193217;23;20350;-67
2020/12/24 00:48:48;;;;;;;128.73;52.80;;;;;;;4.89;80.95;100302.44;6193173;23;20298;-66
2020/12/24 00:51:13;;;;;;;134.50;49.43;;;;;;;4.59;81.98;100300.25;6193660;23;20040;-67
2020/12/24 00:53:39;;;;;;;129.77;51.27;;;;;;;4.78;80.80;100298.81;6193403;23;20000;-67
2020/12/24 00:56:05;;;;;;;114.27;48.27;;;;;;;4.56;82.37;100303.09;6192453;23;20279;-68
2020/12/24 00:58:31;;;;;;;119.50;48.43;;;;;;;4.67;82.60;100309.25;6193177;23;20004;-68
2020/12/24 01:00:56;;;;;;;113.00;46.20;;;;;;;4.75;82.55;100303.44;6191960;23;20013;-69
2020/12/24 01:03:22;;;;;;;118.93;48.57;;;;;;;4.93;81.13;100306.50;6192868;23;20326;-68
2020/12/24 01:05:47;;;;;;;111.93;46.08;;;;;;;4.97;80.54;100300.91;6192382;23;20335;-67
2020/12/24 01:08:12;;;;;;;113.57;46.87;;;;;;;4.98;80.25;100299.97;6193569;23;20004;-67
2020/12/24 01:10:38;;;;;;;117.37;47.80;;;;;;;5.06;81.05;100299.41;6193373;23;20307;-67
2020/12/24 01:13:03;;;;;;;117.73;50.07;;;;;;;5.13;81.25;100290.97;6192935;23;20025;-69
2020/12/24 01:15:29;;;;;;;120.90;49.10;;;;;;;5.22;80.85;100278.97;6194441;23;20009;-64
2020/12/24 01:17:54;;;;;;;117.30;46.50;;;;;;;5.48;77.68;100282.25;6192609;23;20009;-64
2020/12/24 01:20:19;;;;;;;104.07;44.63;;;;;;;5.29;77.44;100277.56;6192879;23;20032;-65
2020/12/24 01:22:45;;;;;;;105.07;41.03;;;;;;;5.20;77.56;100286.13;6191218;23;20047;-67
2020/12/24 01:25:11;;;;;;;98.97;41.23;;;;;;;4.98;78.54;100280.75;6193035;23;20008;-68
2020/12/24 01:27:36;;;;;;;110.83;42.33;;;;;;;4.73;80.03;100269.44;6193061;23;20008;-69
2020/12/24 01:30:03;;;;;;;101.13;42.53;;;;;;;4.63;80.98;100275.47;6192096;23;20116;-69
2020/12/24 01:32:28;;;;;;;101.07;43.00;;;;;;;4.62;82.53;100258.91;6191044;23;20005;-68
2020/12/24 01:34:53;;;;;;;122.18;48.63;;;;;;;4.72;83.00;100254.66;6192936;23;20553;-67
2020/12/24 01:37:19;;;;;;;107.60;42.97;;;;;;;4.96;82.13;100266.91;6191430;23;20294;-69
2020/12/24 01:39:45;;;;;;;96.77;42.10;;;;;;;5.02;80.88;100274.34;6192150;23;20338;-67
2020/12/24 01:42:10;;;;;;;98.80;43.07;;;;;;;4.93;80.31;100267.16;6192306;23;20008;-65
2020/12/24 01:44:35;;;;;;;100.97;42.20;;;;;;;4.96;80.77;100266.91;6191556;23;20005;-66
2020/12/24 01:47:01;;;;;;;97.80;44.27;;;;;;;5.06;80.17;100260.88;6192494;23;20040;-66
2020/12/24 01:49:26;;;;;;;99.97;40.85;;;;;;;5.20;79.40;100261.63;6190825;23;20271;-66
2020/12/24 01:51:54;;;;;;;136.93;47.22;;;;;;;5.03;79.50;100250.59;6190945;23;20190;-64
2020/12/24 01:54:23;;;;;;;119.43;46.75;;;;;;;5.14;78.79;100255.88;6193043;23;20004;-65
2020/12/24 01:56:48;;;;;;;114.53;45.27;;;;;;;5.24;77.53;100250.81;6190517;23;20005;-64
2020/12/24 01:59:15;;;;;;;110.70;43.88;;;;;;;5.24;77.59;100253.44;6192272;23;20321;-64
2020/12/24 02:01:44;;;;;;;184.80;43.27;;;;;;;5.42;75.79;100249.41;6193283;23;20004;-66
2020/12/24 02:04:10;;;;;;;170.03;44.37;;;;;;;5.21;76.24;100256.28;6192745;23;20061;-67
2020/12/24 02:06:36;;;;;;;257.98;49.03;;;;;;;5.04;76.23;100252.28;6190468;23;20033;-67
2020/12/24 02:09:03;;;;;;;96.70;42.13;;;;;;;4.69;78.66;100259.28;6192539;23;20004;-69
2020/12/24 02:11:29;;;;;;;105.33;42.60;;;;;;;4.71;79.63;100260.03;6192706;23;20015;-67
2020/12/24 02:13:54;;;;;;;149.20;44.00;;;;;;;4.89;78.83;100261.28;6191804;23;20009;-67
2020/12/24 02:16:19;;;;;;;146.97;40.90;;;;;;;4.93;77.96;100261.91;6192703;23;20013;-69
2020/12/24 02:18:45;;;;;;;149.17;43.93;;;;;;;4.66;79.03;100260.34;6192302;23;20007;-67
2020/12/24 02:21:10;;;;;;;201.53;43.70;;;;;;;4.52;80.50;100263.13;6190558;23;20338;-67
2020/12/24 02:23:36;;;;;;;242.97;47.20;;;;;;;4.51;80.21;100260.63;6192274;23;20060;-67
2020/12/24 02:26:01;;;;;;;111.27;39.87;;;;;;;4.35;79.96;100258.28;6192805;23;20009;-67
2020/12/24 02:28:26;;;;;;;168.83;39.67;;;;;;;4.25;79.58;100257.25;6190748;23;20008;-67
2020/12/24 02:30:52;;;;;;;226.27;42.20;;;;;;;4.22;79.61;100252.22;6191796;23;20234;-68
2020/12/24 02:33:17;;;;;;;158.37;44.10;;;;;;;4.33;78.70;100249.69;6192001;23;20353;-67
2020/12/24 02:35:43;;;;;;;110.50;42.40;;;;;;;4.40;79.16;100245.66;6192794;23;20012;-68
2020/12/24 02:38:08;;;;;;;111.60;43.97;;;;;;;4.47;79.24;100247.75;6192575;23;20020;-68
2020/12/24 02:40:34;;;;;;;147.85;44.05;;;;;;;4.69;77.63;100252.25;6192584;23;20198;-67
2020/12/24 02:42:59;;;;;;;203.27;47.83;;;;;;;4.57;77.52;100247.91;6194192;23;20028;-68
2020/12/24 02:45:25;;;;;;;188.40;46.80;;;;;;;4.51;78.92;100243.09;6191949;23;20083;-68
2020/12/24 02:47:50;;;;;;;176.20;49.33;;;;;;;4.52;79.97;100241.31;6192051;23;20001;-68
2020/12/24 02:50:16;;;;;;;152.63;44.90;;;;;;;4.65;79.45;100236.84;6191815;23;20016;-68
2020/12/24 02:52:41;;;;;;;188.93;44.20;;;;;;;4.79;78.64;100239.31;6191510;23;20009;-69
2020/12/24 02:55:07;;;;;;;158.57;45.00;;;;;;;4.61;78.56;100244.13;6192415;23;20009;-67
2020/12/24 02:57:33;;;;;;;180.70;43.90;;;;;;;4.49;79.18;100245.00;6191580;23;20016;-67
2020/12/24 03:00:01;;;;;;;165.53;46.67;;;;;;;4.46;80.13;100239.97;6193940;23;20013;-68
2020/12/24 03:02:26;;;;;;;197.83;48.97;;;;;;;4.55;79.88;100243.72;6194554;23;20051;-68
2020/12/24 03:04:52;;;;;;;166.67;46.47;;;;;;;4.50;79.27;100249.31;6193764;23;20064;-67
2020/12/24 03:07:17;;;;;;;148.23;47.60;;;;;;;4.44;79.58;100252.38;6193761;23;20224;-67
2020/12/24 03:09:43;;;;;;;132.50;42.63;;;;;;;4.38;79.98;100243.16;6194799;23;20009;-67
2020/12/24 03:12:11;;;;;;;121.40;44.53;;;;;;;4.44;79.74;100241.88;6194145;23;20001;-68
2020/12/24 03:14:37;;;;;;;179.80;49.97;;;;;;;4.28;80.33;100236.06;6193755;23;20013;-67
2020/12/24 03:17:02;;;;;;;199.33;55.87;;;;;;;4.26;80.57;100243.19;6194522;23;20009;-67
2020/12/24 03:19:28;;;;;;;164.17;46.23;;;;;;;4.28;80.72;100249.16;6193969;23;20314;-67
2020/12/24 03:21:53;;;;;;;147.57;44.67;;;;;;;4.25;80.42;100246.78;6193765;23;20005;-68
2020/12/24 03:24:19;;;;;;;114.00;40.03;;;;;;;4.28;80.48;100246.56;6194016;23;20008;-68
2020/12/24 03:26:44;;;;;;;127.10;42.20;;;;;;;4.23;80.77;100240.81;6194497;23;20036;-67
2020/12/24 03:29:09;;;;;;;140.80;42.50;;;;;;;4.32;80.02;100240.16;6193988;23;20001;-68
2020/12/24 03:31:35;;;;;;;177.13;45.47;;;;;;;4.37;79.80;100236.25;6193081;23;20302;-69
2020/12/24 03:34:00;;;;;;;145.60;40.37;;;;;;;4.64;77.06;100232.56;6194067;23;20007;-67
2020/12/24 03:36:26;;;;;;;133.53;39.77;;;;;;;4.30;76.87;100232.38;6194539;23;20063;-67
2020/12/24 03:38:51;;;;;;;143.83;43.90;;;;;;;4.15;78.04;100233.44;6194189;23;20028;-68
2020/12/24 03:41:17;;;;;;;126.00;38.27;;;;;;;3.95;79.30;100234.88;6193517;23;20056;-68
2020/12/24 03:43:42;;;;;;;138.77;36.60;;;;;;;3.80;79.68;100228.91;6193809;23;20190;-68
2020/12/24 03:46:08;;;;;;;126.20;35.20;;;;;;;3.95;78.78;100231.41;6193915;23;20013;-67
2020/12/24 03:48:33;;;;;;;120.20;38.50;;;;;;;3.93;79.27;100236.75;6193115;23;20008;-67
2020/12/24 03:50:59;;;;;;;107.93;33.93;;;;;;;3.89;79.38;100229.22;6194065;23;20016;-67
2020/12/24 03:53:25;;;;;;;95.37;33.67;;;;;;;3.74;80.07;100237.19;6193632;23;20009;-67
2020/12/24 03:55:50;;;;;;;106.50;36.20;;;;;;;3.86;80.52;100230.28;6193965;23;20202;-68
2020/12/24 03:58:16;;;;;;;74.37;33.80;;;;;;;4.09;79.60;100228.66;6194219;23;20009;-67
2020/12/24 04:00:41;;;;;;;98.53;34.97;;;;;;;4.00;78.76;100227.50;6193612;23;20059;-67
2020/12/24 04:03:07;;;;;;;93.37;34.37;;;;;;;4.08;78.44;100226.97;6193113;23;20221;-68
2020/12/24 04:05:33;;;;;;;126.30;35.43;;;;;;;3.96;76.83;100236.53;6193269;23;20295;-67
2020/12/24 04:07:58;;;;;;;100.37;33.80;;;;;;;3.89;77.45;100222.19;6193828;23;20008;-67
2020/12/24 04:10:24;;;;;;;108.13;32.77;;;;;;;3.75;79.25;100231.03;6192816;23;20013;-69
2020/12/24 04:12:49;;;;;;;122.13;34.47;;;;;;;3.85;79.01;100232.06;6192518;23;20031;-68
2020/12/24 04:15:15;;;;;;;132.17;34.67;;;;;;;3.73;79.09;100227.66;6193766;23;20335;-68
2020/12/24 04:17:40;;;;;;;124.67;35.03;;;;;;;3.60;80.85;100239.94;6195326;23;20021;-67
2020/12/24 04:20:06;;;;;;;158.70;37.43;;;;;;;3.66;81.00;100236.06;6194052;23;20009;-68
2020/12/24 04:22:31;;;;;;;162.13;44.30;;;;;;;3.73;81.85;100232.91;6195731;23;20020;-67
2020/12/24 04:24:56;;;;;;;103.87;36.97;;;;;;;3.77;81.60;100241.38;6192860;23;20009;-69
2020/12/24 04:27:24;;;;;;;99.77;33.20;;;;;;;3.65;81.50;100232.59;6195096;23;20031;-67
2020/12/24 04:29:49;;;;;;;108.87;35.50;;;;;;;3.81;81.01;100227.13;6193101;23;20227;-68
2020/12/24 04:32:15;;;;;;;92.57;35.40;;;;;;;3.85;81.50;100236.44;6193433;23;20001;-68
2020/12/24 04:34:40;;;;;;;106.60;36.67;;;;;;;3.96;80.95;100247.03;6194677;23;20060;-67
2020/12/24 04:37:06;;;;;;;107.90;36.83;;;;;;;4.09;80.21;100239.97;6194157;23;20299;-68
2020/12/24 04:39:31;;;;;;;104.77;35.37;;;;;;;4.11;78.99;100239.84;6194858;23;20007;-68
2020/12/24 04:41:59;;;;;;;100.17;33.40;;;;;;;3.98;79.15;100237.28;6194125;23;20176;-68
2020/12/24 04:44:27;;;;;;;116.80;35.73;;;;;;;3.83;79.24;100244.41;6195123;23;20012;-68
2020/12/24 04:46:55;;;;;;;98.93;34.70;;;;;;;3.78;79.72;100236.03;6194082;23;20036;-68
2020/12/24 04:49:23;;;;;;;100.23;32.70;;;;;;;3.97;78.67;100242.63;6194903;23;20001;-69
2020/12/24 04:51:49;;;;;;;93.37;31.63;;;;;;;3.93;78.68;100239.38;6193697;23;20008;-67
2020/12/24 04:54:15;;;;;;;77.10;30.10;;;;;;;3.80;78.98;100238.56;6195528;23;20005;-69
2020/12/24 04:56:41;;;;;;;102.93;31.17;;;;;;;3.71;79.59;100247.06;6193922;23;20013;-67
2020/12/24 04:59:07;;;;;;;86.87;29.57;;;;;;;3.57;79.90;100229.69;6193500;23;20349;-68
2020/12/24 05:01:33;;;;;;;108.20;30.70;;;;;;;3.51;80.31;100236.16;6194097;23;20013;-67
2020/12/24 05:03:59;;;;;;;106.03;34.57;;;;;;;3.48;81.53;100235.53;6195108;23;20001;-68
2020/12/24 05:06:25;;;;;;;102.93;34.23;;;;;;;3.68;81.44;100231.56;6194149;23;20009;-68
2020/12/24 05:08:55;;;;;;;117.97;37.60;;;;;;;3.77;81.61;100233.53;6193589;23;20001;-67
2020/12/24 05:11:32;;;;;;;115.90;34.57;;;;;;;3.70;81.42;100243.59;6193931;23;20016;-67
2020/12/24 05:14:17;;;;;;;101.17;31.10;;;;;;;3.80;81.11;100241.19;6195005;23;20001;-69
2020/12/24 05:17:15;;;;;;;102.40;33.57;;;;;;;3.66;81.55;100236.91;6193173;23;20051;-68
2020/12/24 05:19:49;;;;;;;90.83;27.20;;;;;;;3.59;81.08;100242.66;6129502;23;20210;-68
2020/12/24 05:22:18;;;;;;;103.65;29.83;;;;;;;3.67;81.60;100240.34;6193479;23;20202;-68
2020/12/24 05:24:44;;;;;;;69.43;27.80;;;;;;;3.61;81.76;100235.53;6194967;23;20009;-68
2020/12/24 05:27:20;;;;;;;139.10;46.97;;;;;;;3.67;81.44;100235.13;6193397;23;20176;-68
2020/12/24 05:29:48;;;;;;;160.30;50.83;;;;;;;3.57;81.46;100241.94;6194320;23;20009;-67
2020/12/24 05:32:13;;;;;;;138.20;41.13;;;;;;;3.46;82.19;100230.41;6193193;23;20293;-67
2020/12/24 05:34:39;;;;;;;141.40;43.70;;;;;;;3.43;83.21;100233.25;6194675;23;20052;-67
2020/12/24 05:37:16;;;;;;;202.30;67.40;;;;;;;3.74;82.23;100236.38;6193258;23;20005;-68
2020/12/24 05:39:47;;;;;;;112.07;37.03;;;;;;;3.81;81.08;100235.00;6194637;23;20015;-68
2020/12/24 05:42:13;;;;;;;101.63;34.90;;;;;;;3.75;80.62;100236.25;6191929;23;20008;-67
2020/12/24 05:44:39;;;;;;;102.60;33.60;;;;;;;3.81;81.37;100235.00;6194618;23;20008;-68
2020/12/24 05:47:06;;;;;;;102.23;32.00;;;;;;;3.75;81.36;100228.41;6191648;23;20012;-68
2020/12/24 05:49:33;;;;;;;97.13;30.77;;;;;;;3.94;80.43;100227.94;6194221;23;20032;-67
2020/12/24 05:52:05;;;;;;;110.10;29.00;;;;;;;3.92;80.96;100232.47;6193748;23;20001;-67
2020/12/24 05:54:32;;;;;;;90.40;24.80;;;;;;;3.80;81.46;100239.41;6194337;23;20230;-67
2020/12/24 05:56:59;;;;;;;94.37;25.93;;;;;;;3.63;81.46;100234.50;6193550;23;20043;-67
2020/12/24 05:59:27;;;;;;;115.67;26.23;;;;;;;3.91;80.27;100245.66;6193646;23;20019;-67
2020/12/24 06:02:16;;;;;;;92.70;28.13;;;;;;;3.75;80.71;100241.50;6194016;23;20005;-67
2020/12/24 06:04:44;;;;;;;106.40;28.97;;;;;;;3.77;81.46;100244.00;6194364;23;20190;-67
2020/12/24 06:07:14;;;;;;;109.63;33.60;;;;;;;3.68;81.94;100239.41;6193740;23;20023;-69
2020/12/24 06:09:44;;;;;;;87.43;27.63;;;;;;;3.70;82.06;100237.53;6193755;23;20048;-68
2020/12/24 06:12:22;;;;;;;85.43;28.70;;;;;;;3.76;82.32;100232.69;6194015;23;20093;-67
2020/12/24 06:14:55;;;;;;;130.43;50.97;;;;;;;3.87;82.06;100242.44;6193901;23;20058;-68
2020/12/24 06:17:22;;;;;;;89.07;35.53;;;;;;;3.93;81.64;100251.63;6192463;23;20251;-68
2020/12/24 06:19:49;;;;;;;92.03;36.30;;;;;;;3.99;82.14;100253.81;6191611;23;20009;-67
2020/12/24 06:22:16;;;;;;;134.87;43.20;;;;;;;4.20;81.02;100249.72;6194237;23;20005;-67
2020/12/24 06:24:53;;;;;;;128.20;37.70;;;;;;;4.15;80.89;100241.31;6193176;23;20008;-67
2020/12/24 06:27:46;;;;;;;90.33;30.20;;;;;;;4.06;80.25;100255.06;6193936;23;20012;-69
2020/12/24 06:30:17;;;;;;;89.70;31.33;;;;;;;4.10;80.53;100257.38;6193364;23;20013;-68
2020/12/24 06:32:53;;;;;;;96.67;36.00;;;;;;;4.18;79.67;100261.25;6193361;23;20035;-67
2020/12/24 06:35:39;;;;;;;97.23;38.10;;;;;;;4.28;79.27;100247.38;6193347;23;20064;-68
2020/12/24 06:38:06;;;;;;;83.57;27.87;;;;;;;4.10;79.43;100244.25;6193577;23;20005;-67
2020/12/24 06:40:36;;;;;;;86.37;28.40;;;;;;;3.80;80.63;100246.41;6193769;23;20182;-69
2020/12/24 06:43:03;;;;;;;101.43;29.13;;;;;;;4.02;81.30;100246.59;6193811;23;20001;-68
2020/12/24 06:45:29;;;;;;;94.50;28.07;;;;;;;4.02;81.72;100256.22;6193408;23;20013;-68
2020/12/24 06:48:24;;;;;;;111.07;27.77;;;;;;;3.91;82.38;100259.59;6194041;23;20032;-67
2020/12/24 06:51:01;;;;;;;105.87;29.47;;;;;;;3.90;83.30;100257.94;6193964;23;20009;-67
2020/12/24 06:53:31;;;;;;;143.20;32.20;;;;;;;3.98;83.50;100253.00;6193550;23;20332;-68
2020/12/24 06:56:23;;;;;;;137.27;30.97;;;;;;;3.73;84.36;100255.66;6193163;23;20025;-68
2020/12/24 06:58:56;;;;;;;120.07;31.50;;;;;;;3.68;84.94;100257.75;6193554;23;20190;-69
2020/12/24 07:01:26;;;;;;;132.17;29.73;;;;;;;3.69;86.96;100256.81;6194696;23;20194;-68
2020/12/24 07:03:53;;;;;;;117.10;30.03;;;;;;;3.94;85.62;100262.00;6193467;23;20001;-69
2020/12/24 07:06:40;;;;;;;109.23;29.80;;;;;;;4.00;85.44;100264.19;6194205;23;20009;-68
2020/12/24 07:09:08;;;;;;;124.87;28.67;;;;;;;4.07;85.64;100267.22;6193052;23;20203;-68
2020/12/24 07:11:44;;;;;;;114.23;28.87;;;;;;;4.22;84.69;100260.94;6194657;23;20190;-67
2020/12/24 07:14:29;;;;;;;127.77;28.50;;;;;;;4.32;83.58;100255.88;6193278;23;20061;-68
2020/12/24 07:16:56;;;;;;;107.97;28.33;;;;;;;4.39;83.54;100260.56;6192579;23;20064;-67
2020/12/24 07:19:23;;;;;;;140.30;35.90;;;;;;;4.30;85.01;100263.84;6192453;23;20009;-68
2020/12/24 07:21:53;;;;;;;119.27;35.53;;;;;;;4.44;84.09;100262.84;6193997;23;20312;-68
2020/12/24 07:24:29;;;;;;;132.43;35.97;;;;;;;4.54;84.41;100279.59;6193143;23;20001;-69
2020/12/24 07:26:59;;;;;;;171.83;60.07;;;;;;;4.51;84.29;100273.75;6193848;23;20294;-67
2020/12/24 07:29:27;;;;;;;350.23;104.53;;;;;;;4.66;83.71;100260.34;6191589;23;20056;-66
2020/12/24 07:31:54;;;;;;;388.93;228.40;;;;;;;4.82;83.48;100254.81;6193381;23;20012;-66
2020/12/24 07:34:24;;;;;;;200.63;81.83;;;;;;;4.95;83.04;100250.34;6193329;23;20268;-66
2020/12/24 07:36:49;;;;;;;166.60;64.83;;;;;;;5.05;82.46;100248.69;6192056;23;20025;-64
2020/12/24 07:39:15;;;;;;;137.13;47.33;;;;;;;5.16;81.65;100244.44;6193546;23;20202;-66
2020/12/24 07:41:40;;;;;;;136.00;52.30;;;;;;;5.29;81.27;100243.44;6193050;23;20031;-66
2020/12/24 07:44:10;;;;;;;126.97;45.93;;;;;;;5.22;80.95;100231.72;6193284;23;20048;-68
2020/12/24 07:46:36;;;;;;;104.43;37.73;;;;;;;5.04;82.33;100227.81;6195668;23;20049;-67
2020/12/24 07:49:03;;;;;;;131.07;39.10;;;;;;;4.77;84.31;100228.91;6194407;23;20180;-67
2020/12/24 07:51:29;;;;;;;91.80;33.37;;;;;;;4.51;85.71;100234.41;6196094;23;20016;-68
2020/12/24 07:54:05;;;;;;;94.43;32.33;;;;;;;4.44;87.49;100242.72;6194581;23;20190;-67
2020/12/24 07:56:32;;;;;;;112.17;35.53;;;;;;;4.38;88.03;100239.69;6195909;23;20036;-67
2020/12/24 07:59:00;;;;;;;114.27;38.13;;;;;;;4.59;87.59;100232.91;6194199;23;20063;-67
2020/12/24 08:01:25;;;;;;;113.70;40.80;;;;;;;4.73;86.65;100231.88;6194728;23;20012;-67
2020/12/24 08:04:03;;;;;;;136.80;37.47;;;;;;;4.55;87.77;100218.34;6195013;23;20239;-67
2020/12/24 08:06:28;;;;;;;117.73;41.30;;;;;;;4.73;87.19;100231.88;6194535;23;20036;-68
2020/12/24 08:09:17;;;;;;;141.63;44.10;;;;;;;4.84;87.25;100228.47;6192937;23;20012;-67
2020/12/24 08:11:55;;;;;;;145.63;45.87;;;;;;;4.84;87.20;100238.97;6192705;23;20023;-68
2020/12/24 08:14:25;;;;;;;160.27;49.70;;;;;;;5.04;87.25;100228.66;6195493;23;20001;-67
2020/12/24 08:16:51;;;;;;;160.77;51.40;;;;;;;5.13;87.75;100232.38;6192954;23;20408;-67
2020/12/24 08:19:28;;;;;;;257.30;135.17;;;;;;;5.37;88.40;100240.22;6194373;23;20008;-67
2020/12/24 08:22:04;;;;;;;122.13;45.47;;;;;;;5.26;88.76;100238.41;6193637;23;20001;-67
2020/12/24 08:24:31;;;;;;;128.82;49.22;;;;;;;5.48;88.41;100234.16;6193153;23;20291;-68
2020/12/24 08:26:57;;;;;;;120.95;46.63;;;;;;;5.74;87.55;100243.47;6193258;23;20005;-67
2020/12/24 08:29:25;;;;;;;113.65;45.50;;;;;;;6.01;86.41;100243.97;6193999;23;20007;-67
2020/12/24 08:31:51;;;;;;;211.13;68.97;;;;;;;6.24;85.45;100249.22;6194934;23;20009;-68
2020/12/24 08:34:17;;;;;;;110.68;45.83;;;;;;;6.38;83.67;100254.25;6193923;23;19997;-68
2020/12/24 08:36:42;;;;;;;116.63;50.45;;;;;;;6.72;82.54;100234.75;6195079;23;20024;-68
2020/12/24 08:39:09;;;;;;;113.55;49.28;;;;;;;6.65;83.51;100227.50;6193777;23;20004;-67
2020/12/24 08:42:00;;;;;;;112.32;49.58;;;;;;;6.85;83.09;100221.44;6195953;23;20026;-68
2020/12/24 08:44:26;;;;;;;123.53;51.42;;;;;;;6.96;82.98;100216.09;6193810;23;20225;-68
2020/12/24 08:47:07;;;;;;;93.97;39.90;;;;;;;6.99;82.00;100215.03;6195215;23;19997;-67
2020/12/24 08:49:38;;;;;;;101.68;41.83;;;;;;;7.04;80.92;100213.66;6193481;23;19997;-68
2020/12/24 08:52:17;;;;;;;86.20;36.28;;;;;;;6.89;82.13;100212.31;6195565;23;20005;-68
2020/12/24 08:54:59;;;;;;;86.60;36.35;;;;;;;6.99;82.29;100194.78;6192275;23;20064;-67
2020/12/24 08:57:25;;;;;;;88.82;40.78;;;;;;;6.88;83.75;100205.38;6194675;23;20024;-67
2020/12/24 08:59:58;;;;;;;105.15;45.95;;;;;;;6.79;84.25;100216.66;6193755;23;20286;-68
2020/12/24 09:02:30;;;;;;;110.25;48.45;;;;;;;6.84;84.28;100214.50;6194934;23;20005;-67
2020/12/24 09:04:57;;;;;;;109.43;45.60;;;;;;;7.13;83.46;100206.78;6193581;23;20001;-69
2020/12/24 09:07:27;;;;;;;107.25;45.65;;;;;;;7.21;82.93;100209.63;6195097;23;20029;-67
2020/12/24 09:10:06;;;;;;;102.53;44.08;;;;;;;7.22;84.05;100207.81;6193821;23;20202;-67
2020/12/24 09:12:32;;;;;;;100.72;45.47;;;;;;;7.36;83.99;100205.72;6195445;23;20001;-67
2020/12/24 09:15:02;;;;;;;108.78;48.63;;;;;;;7.40;83.11;100195.75;6193540;23;20011;-68
2020/12/24 09:17:28;;;;;;;110.05;50.53;;;;;;;7.47;83.36;100193.44;6193383;23;20318;-67
2020/12/24 09:20:12;;;;;;;115.95;51.65;;;;;;;7.60;83.17;100199.31;6191570;23;20005;-69
2020/12/24 09:22:59;;;;;;;117.13;49.05;;;;;;;7.87;82.15;100193.47;6194087;23;20021;-67
2020/12/24 09:25:30;;;;;;;113.95;49.72;;;;;;;7.91;81.59;100189.59;6193519;23;20005;-69
2020/12/24 09:27:56;;;;;;;109.10;50.08;;;;;;;7.93;81.90;100188.50;6193303;23;20104;-67
2020/12/24 09:30:23;;;;;;;103.80;48.53;;;;;;;8.04;81.72;100182.28;6193006;23;20005;-68
2020/12/24 09:32:59;;;;;;;119.15;53.05;;;;;;;8.15;81.84;100166.31;6194871;23;20064;-67
2020/12/24 09:35:26;;;;;;;117.88;52.88;;;;;;;8.18;81.38;100136.22;6192990;23;20199;-67
2020/12/24 09:37:53;;;;;;;117.95;54.53;;;;;;;8.41;80.77;100165.88;6194957;23;20009;-67
2020/12/24 09:40:19;;;;;;;121.75;55.55;;;;;;;8.44;80.82;100162.94;6193251;23;20048;-69
2020/12/24 09:42:45;;;;;;;135.27;56.67;;;;;;;8.52;80.59;100161.28;6193638;23;20080;-68
2020/12/24 09:45:10;;;;;;;126.93;55.88;;;;;;;8.60;80.81;100155.31;6193015;23;20052;-67
2020/12/24 09:47:36;;;;;;;137.65;58.35;;;;;;;8.58;80.47;100146.69;6194461;23;20022;-67
2020/12/24 09:50:03;;;;;;;132.13;57.65;;;;;;;8.64;80.56;100146.16;6192898;23;20017;-67
2020/12/24 09:52:28;;;;;;;127.95;56.50;;;;;;;8.71;80.68;100135.84;6194512;23;20004;-67
2020/12/24 09:54:54;;;;;;;129.13;54.58;;;;;;;8.86;80.04;100130.00;6192958;23;20023;-67
2020/12/24 09:57:19;;;;;;;127.70;51.95;;;;;;;8.70;80.83;100115.72;6194303;23;20013;-68
2020/12/24 09:59:45;;;;;;;123.15;52.45;;;;;;;8.52;81.71;100120.88;6193445;23;20312;-68
2020/12/24 10:02:10;;;;;;;141.80;55.85;;;;;;;8.44;82.29;100123.38;6194618;23;20343;-69
2020/12/24 10:04:36;;;;;;;131.32;56.10;;;;;;;8.62;81.75;100117.25;6193690;23;20079;-67
2020/12/24 10:07:01;;;;;;;137.52;57.58;;;;;;;8.43;81.94;100109.34;6191723;23;20037;-67
2020/12/24 10:09:26;;;;;;;151.77;62.58;;;;;;;8.35;82.91;100098.66;6193632;23;19997;-68
2020/12/24 10:11:52;;;;;;;160.60;65.32;;;;;;;8.55;82.75;100096.81;6191034;23;20016;-67
2020/12/24 10:14:17;;;;;;;172.90;70.03;;;;;;;8.39;82.63;100086.84;6193579;23;20051;-67
2020/12/24 10:16:43;;;;;;;166.80;69.15;;;;;;;8.44;82.86;100097.81;6192043;23;20212;-68
2020/12/24 10:19:08;;;;;;;163.32;69.22;;;;;;;8.34;83.55;100098.78;6192878;23;20017;-68
2020/12/24 10:21:34;;;;;;;166.07;68.85;;;;;;;8.60;81.73;100098.06;6193172;23;20271;-68
2020/12/24 10:23:59;;;;;;;155.68;69.25;;;;;;;8.43;83.70;100085.59;6194421;23;20012;-67
2020/12/24 10:26:25;;;;;;;150.40;67.25;;;;;;;8.50;82.29;100097.25;6193118;23;20004;-68
2020/12/24 10:28:50;;;;;;;152.57;64.57;;;;;;;8.45;83.26;100096.84;6194129;23;20005;-68
2020/12/24 10:31:16;;;;;;;146.90;63.58;;;;;;;8.61;81.80;100083.91;6191132;23;20027;-67
2020/12/24 10:33:41;;;;;;;148.20;62.63;;;;;;;8.57;82.70;100079.03;6194027;23;20216;-67
2020/12/24 10:36:07;;;;;;;149.63;62.55;;;;;;;8.71;82.04;100070.69;6193094;23;20009;-67
2020/12/24 10:38:32;;;;;;;145.93;61.58;;;;;;;8.89;81.24;100068.97;6194400;23;20013;-68
2020/12/24 10:40:58;;;;;;;122.43;56.22;;;;;;;8.86;80.40;100073.72;6193030;23;20013;-68
2020/12/24 10:43:23;;;;;;;136.35;57.67;;;;;;;8.75;81.07;100064.16;6194419;23;20001;-68
2020/12/24 10:45:48;;;;;;;127.97;56.55;;;;;;;9.16;80.91;100062.91;6192540;23;20016;-67
2020/12/24 10:48:14;;;;;;;135.35;57.13;;;;;;;9.06;80.37;100064.75;6193440;23;20012;-67
2020/12/24 10:50:39;;;;;;;126.50;57.58;;;;;;;8.92;81.62;100057.28;6193949;23;20029;-67
2020/12/24 10:53:05;;;;;;;121.53;58.15;;;;;;;9.08;81.18;100054.88;6191915;23;20007;-68
2020/12/24 10:55:30;;;;;;;125.78;57.38;;;;;;;9.04;80.46;100047.38;6194014;23;20005;-67
2020/12/24 10:57:56;;;;;;;122.40;55.30;;;;;;;8.90;81.51;100041.59;6192787;23;20059;-68
2020/12/24 11:00:21;;;;;;;111.32;50.65;;;;;;;8.76;81.75;100033.28;6192746;23;20234;-67
2020/12/24 11:02:46;;;;;;;100.78;47.33;;;;;;;8.78;81.77;100040.09;6192786;23;20065;-67
2020/12/24 11:05:12;;;;;;;107.50;49.60;;;;;;;8.94;80.22;100032.41;6194385;23;20068;-67
2020/12/24 11:07:37;;;;;;;103.43;47.45;;;;;;;9.16;80.33;100025.09;6193083;23;20005;-67
2020/12/24 11:10:04;;;;;;;101.45;44.72;;;;;;;9.25;79.55;100032.13;6193872;23;20005;-69
2020/12/24 11:12:29;;;;;;;98.63;46.90;;;;;;;9.15;79.80;100016.31;6166299;23;20009;-68